createdAt,value
2023-01-18T00:01:19.288Z,1.16
2023-01-18T00:03:45.929Z,1.13
2023-01-18T00:06:12.620Z,1.07
2023-01-18T00:08:41.012Z,1.04
2023-01-18T00:11:16.917Z,1.04
2023-01-18T00:13:44.133Z,1.05
2023-01-18T00:16:14.194Z,1.06
2023-01-18T00:18:40.785Z,1.07
2023-01-18T00:21:09.764Z,1.09
2023-01-18T00:23:36.254Z,1.08
2023-01-18T00:26:07.732Z,1.08
2023-01-18T00:28:34.676Z,1.08
2023-01-18T00:31:01.241Z,1.12
2023-01-18T00:33:27.993Z,1.12
2023-01-18T00:35:58.731Z,1.14
2023-01-18T00:38:25.847Z,1.19
2023-01-18T00:40:52.379Z,1.16
2023-01-18T00:43:37.699Z,1.12
2023-01-18T00:46:11.794Z,1.09
2023-01-18T00:48:39.808Z,1.08
2023-01-18T00:51:08.123Z,1.09
2023-01-18T00:53:35.006Z,1.11
2023-01-18T00:56:01.383Z,1.14
2023-01-18T00:58:28.926Z,1.11
2023-01-18T01:00:55.508Z,1.07
2023-01-18T01:03:21.941Z,1.08
2023-01-18T01:06:06.834Z,1.08
2023-01-18T01:08:33.762Z,1.08
2023-01-18T01:11:07.348Z,1.03
2023-01-18T01:13:52.331Z,1.00
2023-01-18T01:16:37.174Z,1.01
2023-01-18T01:19:22.506Z,1.02
2023-01-18T01:22:07.910Z,1.05
2023-01-18T01:24:53.679Z,1.08
2023-01-18T01:27:20.647Z,1.13
2023-01-18T01:29:47.041Z,1.13
2023-01-18T01:32:13.541Z,1.11
2023-01-18T01:34:39.995Z,1.11
2023-01-18T01:37:06.521Z,1.12
2023-01-18T01:39:32.957Z,1.11
2023-01-18T01:41:59.401Z,1.04
2023-01-18T01:44:28.138Z,1.03
2023-01-18T01:47:02.678Z,1.02
2023-01-18T01:49:32.828Z,0.99
2023-01-18T01:52:09.084Z,0.97
2023-01-18T01:54:40.720Z,0.98
2023-01-18T01:57:17.948Z,1.00
2023-01-18T02:00:03.349Z,1.02
2023-01-18T02:02:32.839Z,1.02
2023-01-18T02:05:01.397Z,1.03
2023-01-18T02:07:28.860Z,0.99
2023-01-18T02:09:57.114Z,0.98
2023-01-18T02:12:23.821Z,1.00
2023-01-18T02:14:50.864Z,0.98
2023-01-18T02:17:40.592Z,0.91
2023-01-18T02:20:28.291Z,0.87
2023-01-18T02:23:21.120Z,0.85
2023-01-18T02:25:50.316Z,0.84
2023-01-18T02:28:21.194Z,0.83
2023-01-18T02:30:58.472Z,0.80
2023-01-18T02:33:33.842Z,0.77
2023-01-18T02:36:02.821Z,0.75
2023-01-18T02:38:44.571Z,0.76
2023-01-18T02:41:19.635Z,0.80
2023-01-18T02:44:07.663Z,0.85
2023-01-18T02:46:34.502Z,0.86
2023-01-18T02:49:18.676Z,0.81
2023-01-18T02:51:45.118Z,0.83
2023-01-18T02:54:13.104Z,0.83
2023-01-18T02:56:47.106Z,0.80
2023-01-18T02:59:24.511Z,0.82
2023-01-18T03:02:00.493Z,0.85
2023-01-18T03:04:56.066Z,0.82
2023-01-18T03:07:28.468Z,0.79
2023-01-18T03:09:57.326Z,0.75
2023-01-18T03:12:45.950Z,0.79
2023-01-18T03:15:15.585Z,0.81
2023-01-18T03:17:49.009Z,0.87
2023-01-18T03:20:20.648Z,0.91
2023-01-18T03:23:20.010Z,0.88
2023-01-18T03:25:49.442Z,0.87
2023-01-18T03:28:39.591Z,0.84
2023-01-18T03:31:30.054Z,0.80
2023-01-18T03:34:03.509Z,0.84
2023-01-18T03:36:38.979Z,0.85
2023-01-18T03:39:10.312Z,0.85
2023-01-18T03:41:42.287Z,0.79
2023-01-18T03:44:19.471Z,0.75
2023-01-18T03:46:47.592Z,0.76
2023-01-18T03:49:16.344Z,0.75
2023-01-18T03:52:00.103Z,0.75
2023-01-18T03:54:56.386Z,0.74
2023-01-18T03:57:33.494Z,0.76
2023-01-18T04:00:01.454Z,0.74
2023-01-18T04:02:28.190Z,0.71
2023-01-18T04:04:57.595Z,0.74
2023-01-18T04:07:25.755Z,0.73
2023-01-18T04:09:52.210Z,0.76
2023-01-18T04:12:18.801Z,0.75
2023-01-18T04:14:45.284Z,0.73
2023-01-18T04:17:11.732Z,0.75
2023-01-18T04:19:40.453Z,0.77
2023-01-18T04:22:09.687Z,0.76
2023-01-18T04:24:36.307Z,0.74
2023-01-18T04:27:03.308Z,0.71
2023-01-18T04:29:30.006Z,0.69
2023-01-18T04:31:56.526Z,0.65
2023-01-18T04:34:23.007Z,0.59
2023-01-18T04:36:53.541Z,0.60
2023-01-18T04:39:20.035Z,0.57
2023-01-18T04:41:46.404Z,0.56
2023-01-18T04:44:13.937Z,0.58
2023-01-18T04:46:40.472Z,0.57
2023-01-18T04:49:12.183Z,0.54
2023-01-18T04:51:39.247Z,0.56
2023-01-18T04:54:05.763Z,0.53
2023-01-18T04:56:32.223Z,0.53
2023-01-18T04:58:58.635Z,0.53
2023-01-18T05:01:25.192Z,0.52
2023-01-18T05:03:53.275Z,0.51
2023-01-18T05:06:22.569Z,0.53
2023-01-18T05:08:48.996Z,0.53
2023-01-18T05:11:17.489Z,0.52
2023-01-18T05:13:44.805Z,0.51
2023-01-18T05:16:20.364Z,0.50
2023-01-18T05:18:47.317Z,0.52
2023-01-18T05:21:14.551Z,0.51
2023-01-18T05:23:41.225Z,0.48
2023-01-18T05:26:14.516Z,0.44
2023-01-18T05:28:42.224Z,0.38
2023-01-18T05:31:09.409Z,0.37
2023-01-18T05:33:36.179Z,0.34
2023-01-18T05:36:02.658Z,0.34
2023-01-18T05:38:29.089Z,0.30
2023-01-18T05:40:55.549Z,0.27
2023-01-18T05:43:24.954Z,0.30
2023-01-18T05:45:51.524Z,0.30
2023-01-18T05:48:18.823Z,0.31
2023-01-18T05:50:46.577Z,0.31
2023-01-18T05:53:15.501Z,0.35
2023-01-18T05:55:42.236Z,0.32
2023-01-18T05:58:09.089Z,0.34
2023-01-18T06:00:35.646Z,0.34
2023-01-18T06:03:02.095Z,0.33
2023-01-18T06:05:28.973Z,0.30
2023-01-18T06:07:55.435Z,0.30
2023-01-18T06:10:21.927Z,0.30
2023-01-18T06:12:48.403Z,0.32
2023-01-18T06:15:15.621Z,0.34
2023-01-18T06:17:45.075Z,0.35
2023-01-18T06:20:12.691Z,0.33
2023-01-18T06:22:39.234Z,0.32
2023-01-18T06:25:06.457Z,0.30
2023-01-18T06:27:33.014Z,0.28
2023-01-18T06:29:59.369Z,0.30
2023-01-18T06:32:25.821Z,0.30
2023-01-18T06:34:52.267Z,0.28
2023-01-18T06:37:18.755Z,0.30
2023-01-18T06:39:45.138Z,0.34
2023-01-18T06:42:11.539Z,0.35
2023-01-18T06:44:38.006Z,0.37
2023-01-18T06:47:04.525Z,0.36
2023-01-18T06:49:31.026Z,0.34
2023-01-18T06:51:57.504Z,0.33
2023-01-18T06:54:23.996Z,0.34
2023-01-18T06:56:50.680Z,0.37
2023-01-18T06:59:17.145Z,0.35
2023-01-18T07:01:43.689Z,0.35
2023-01-18T07:04:10.335Z,0.35
2023-01-18T07:06:36.895Z,0.37
2023-01-18T07:09:07.547Z,0.39
2023-01-18T07:11:35.705Z,0.37
2023-01-18T07:14:02.281Z,0.35
2023-01-18T07:16:30.223Z,0.36
2023-01-18T07:18:56.691Z,0.30
2023-01-18T07:21:29.350Z,0.31
2023-01-18T07:23:57.614Z,0.33
2023-01-18T07:26:25.320Z,0.33
2023-01-18T07:28:52.441Z,0.32
2023-01-18T07:31:19.095Z,0.32
2023-01-18T07:33:45.597Z,0.34
2023-01-18T07:36:13.949Z,0.34
2023-01-18T07:38:40.955Z,0.36
2023-01-18T07:41:10.129Z,0.34
2023-01-18T07:43:37.884Z,0.32
2023-01-18T07:46:06.930Z,0.28
2023-01-18T07:48:33.978Z,0.30
2023-01-18T07:51:03.828Z,0.30
2023-01-18T07:53:32.442Z,0.28
2023-01-18T07:56:00.841Z,0.26
2023-01-18T07:58:27.544Z,0.23
2023-01-18T08:00:54.146Z,0.20
2023-01-18T08:03:21.230Z,0.16
2023-01-18T08:05:47.950Z,0.11
2023-01-18T08:08:16.779Z,0.06
2023-01-18T08:10:44.135Z,0.06
2023-01-18T08:13:10.890Z,0.07
2023-01-18T08:15:38.573Z,0.08
2023-01-18T08:18:06.613Z,0.10
2023-01-18T08:20:33.564Z,0.13
2023-01-18T08:23:01.649Z,0.13
2023-01-18T08:25:30.395Z,0.11
2023-01-18T08:27:59.015Z,0.13
2023-01-18T08:30:28.075Z,0.15
2023-01-18T08:32:58.808Z,0.15
2023-01-18T08:35:30.257Z,0.21
2023-01-18T08:37:58.717Z,0.22
2023-01-18T08:40:27.163Z,0.24
2023-01-18T08:42:58.711Z,0.23
2023-01-18T08:45:26.139Z,0.22
2023-01-18T08:48:10.572Z,0.19
2023-01-18T08:50:38.977Z,0.20
2023-01-18T08:53:05.582Z,0.23
2023-01-18T08:55:34.039Z,0.28
2023-01-18T08:58:00.664Z,0.26
2023-01-18T09:00:30.701Z,0.25
2023-01-18T09:02:59.107Z,0.28
2023-01-18T09:05:27.002Z,0.26
2023-01-18T09:07:54.569Z,0.28
2023-01-18T09:10:22.254Z,0.25
2023-01-18T09:12:49.031Z,0.23
2023-01-18T09:15:15.762Z,0.26
2023-01-18T09:17:42.267Z,0.30
2023-01-18T09:20:09.804Z,0.34
2023-01-18T09:22:37.171Z,0.31
2023-01-18T09:25:05.651Z,0.31
2023-01-18T09:27:32.853Z,0.32
2023-01-18T09:29:59.253Z,0.33
2023-01-18T09:32:27.395Z,0.37
2023-01-18T09:34:54.805Z,0.36
2023-01-18T09:37:21.740Z,0.34
2023-01-18T09:39:52.059Z,0.31
2023-01-18T09:42:25.290Z,0.30
2023-01-18T09:44:56.481Z,0.29
2023-01-18T09:47:24.896Z,0.35
2023-01-18T09:49:56.679Z,0.36
2023-01-18T09:52:32.450Z,0.37
2023-01-18T09:55:36.396Z,0.43
2023-01-18T09:58:12.369Z,0.47
2023-01-18T10:00:46.246Z,0.42
2023-01-18T10:03:35.199Z,0.41
2023-01-18T10:06:09.739Z,0.41
2023-01-18T10:08:51.081Z,0.40
2023-01-18T10:11:31.430Z,0.43
2023-01-18T10:14:13.746Z,0.44
2023-01-18T10:16:40.228Z,0.44
2023-01-18T10:19:15.215Z,0.42
2023-01-18T10:21:53.665Z,0.42
2023-01-18T10:24:32.426Z,0.40
2023-01-18T10:27:10.674Z,0.38
2023-01-18T10:30:06.906Z,0.38
2023-01-18T10:32:36.217Z,0.42
2023-01-18T10:35:14.360Z,0.40
2023-01-18T10:37:46.620Z,0.42
2023-01-18T10:40:14.885Z,0.41
2023-01-18T10:42:48.737Z,0.40
2023-01-18T10:45:21.587Z,0.42
2023-01-18T10:47:50.073Z,0.48
2023-01-18T10:50:36.656Z,0.50
2023-01-18T10:53:21.957Z,0.48
2023-01-18T10:56:04.249Z,0.52
2023-01-18T10:58:52.175Z,0.64
2023-01-18T11:01:27.492Z,0.67
2023-01-18T11:03:56.115Z,0.73
2023-01-18T11:06:24.426Z,0.80
2023-01-18T11:08:51.711Z,0.94
2023-01-18T11:12:10.917Z,0.92
2023-01-18T11:14:39.339Z,1.03
2023-01-18T11:17:17.576Z,1.02
2023-01-18T11:19:43.959Z,1.05
2023-01-18T11:22:16.792Z,0.99
2023-01-18T11:24:43.589Z,0.95
2023-01-18T11:27:23.486Z,0.92
2023-01-18T11:29:50.551Z,0.89
2023-01-18T11:32:27.836Z,0.81
2023-01-18T11:34:57.911Z,0.81
2023-01-18T11:37:30.834Z,0.80
2023-01-18T11:39:57.353Z,0.85
2023-01-18T11:42:36.490Z,0.87
2023-01-18T11:45:22.768Z,0.90
2023-01-18T11:48:02.446Z,0.89
2023-01-18T11:50:47.134Z,0.92
2023-01-18T11:53:43.818Z,1.00
2023-01-18T11:56:32.332Z,1.08
2023-01-18T11:59:00.904Z,1.12
2023-01-18T12:01:47.545Z,1.07
2023-01-18T12:04:23.145Z,1.02
2023-01-18T12:07:04.779Z,0.95
2023-01-18T12:09:43.079Z,0.87
2023-01-18T12:12:40.255Z,0.81
2023-01-18T12:15:29.112Z,0.84
2023-01-18T12:18:12.912Z,0.85
2023-01-18T12:20:56.106Z,0.81
2023-01-18T12:23:29.809Z,0.76
2023-01-18T12:26:11.711Z,0.77
2023-01-18T12:28:47.160Z,0.80
2023-01-18T12:31:20.073Z,0.83
2023-01-18T12:34:07.511Z,0.84
2023-01-18T12:37:13.399Z,0.88
2023-01-18T12:40:01.583Z,0.88
2023-01-18T12:42:50.218Z,0.90
2023-01-18T12:45:31.956Z,0.93
2023-01-18T12:48:13.783Z,0.94
2023-01-18T12:50:43.448Z,0.94
2023-01-18T12:53:23.464Z,0.95
2023-01-18T12:55:53.728Z,1.04
2023-01-18T12:58:24.537Z,1.09
2023-01-18T13:00:59.023Z,1.12
2023-01-18T13:03:42.521Z,1.09
2023-01-18T13:06:10.027Z,1.11
2023-01-18T13:08:44.668Z,1.13
2023-01-18T13:11:20.122Z,1.09
2023-01-18T13:13:49.765Z,1.09
2023-01-18T13:16:39.333Z,1.07
2023-01-18T13:19:10.534Z,1.10
2023-01-18T13:21:42.836Z,1.11
2023-01-18T13:24:37.349Z,1.09
2023-01-18T13:27:09.600Z,1.09
2023-01-18T13:29:36.864Z,1.07
2023-01-18T13:32:03.714Z,1.06
2023-01-18T13:34:48.050Z,1.03
2023-01-18T13:37:40.273Z,1.00
2023-01-18T13:40:19.288Z,1.00
2023-01-18T13:42:45.764Z,1.00
2023-01-18T13:45:38.835Z,1.01
2023-01-18T13:48:35.111Z,1.04
2023-01-18T13:51:02.086Z,1.08
2023-01-18T13:53:31.435Z,1.08
2023-01-18T13:56:04.027Z,1.08
2023-01-18T13:58:37.971Z,1.13
2023-01-18T14:01:08.883Z,1.13
2023-01-18T14:03:39.111Z,1.11
2023-01-18T14:06:09.060Z,1.11
2023-01-18T14:08:38.479Z,1.10
2023-01-18T14:11:10.638Z,1.12
2023-01-18T14:13:46.128Z,1.13
2023-01-18T14:16:18.002Z,1.13
2023-01-18T14:18:55.632Z,1.13
2023-01-18T14:21:40.974Z,1.13
2023-01-18T14:24:19.698Z,1.15
2023-01-18T14:26:47.538Z,1.13
2023-01-18T14:29:34.737Z,1.12
2023-01-18T14:32:05.222Z,1.12
2023-01-18T14:34:37.876Z,1.12
2023-01-18T14:37:27.043Z,1.11
2023-01-18T14:40:14.532Z,1.12
2023-01-18T14:42:50.034Z,1.13
2023-01-18T14:45:22.770Z,1.14
2023-01-18T14:47:49.748Z,1.15
2023-01-18T14:50:20.572Z,1.15
2023-01-18T14:52:50.400Z,1.14
2023-01-18T14:55:34.299Z,1.15
2023-01-18T14:58:03.747Z,1.14
2023-01-18T15:00:31.994Z,1.15
2023-01-18T15:03:00.716Z,1.13
2023-01-18T15:05:29.802Z,1.14
2023-01-18T15:07:58.480Z,1.15
2023-01-18T15:10:26.049Z,1.16
2023-01-18T15:12:57.609Z,1.16
2023-01-18T15:15:31.300Z,1.16
2023-01-18T15:18:05.793Z,1.14
2023-01-18T15:20:34.946Z,1.15
2023-01-18T15:23:01.978Z,1.17
2023-01-18T15:25:32.761Z,1.16
2023-01-18T15:28:18.383Z,1.16
2023-01-18T15:30:54.869Z,1.16
2023-01-18T15:33:23.516Z,1.18
2023-01-18T15:35:55.716Z,1.17
2023-01-18T15:38:22.212Z,1.17
2023-01-18T15:41:11.462Z,1.17
2023-01-18T15:43:42.095Z,1.18
2023-01-18T15:46:12.036Z,1.16
2023-01-18T15:48:51.487Z,1.13
2023-01-18T15:51:22.292Z,1.14
2023-01-18T15:53:52.550Z,1.13
2023-01-18T15:56:26.460Z,1.11
2023-01-18T15:58:55.884Z,1.10
2023-01-18T16:01:28.102Z,1.08
2023-01-18T16:04:00.467Z,1.09
2023-01-18T16:06:29.596Z,1.09
2023-01-18T16:09:13.308Z,1.08
2023-01-18T16:11:58.387Z,1.08
2023-01-18T16:14:28.139Z,1.09
2023-01-18T16:16:56.931Z,1.08
2023-01-18T16:19:31.752Z,1.08
2023-01-18T16:22:01.642Z,1.07
2023-01-18T16:24:37.353Z,1.08
2023-01-18T16:27:15.894Z,1.07
2023-01-18T16:29:48.077Z,1.11
2023-01-18T16:32:27.911Z,1.06
2023-01-18T16:35:14.340Z,1.03
2023-01-18T16:37:41.867Z,1.03
2023-01-18T16:40:09.453Z,1.02
2023-01-18T16:42:53.769Z,1.01
2023-01-18T16:45:20.949Z,1.00
2023-01-18T16:47:47.316Z,1.00
2023-01-18T16:50:17.946Z,0.99
2023-01-18T16:52:44.896Z,0.99
2023-01-18T16:55:15.063Z,1.00
2023-01-18T16:57:43.001Z,0.99
2023-01-18T17:00:15.809Z,0.98
2023-01-18T17:02:42.302Z,0.96
2023-01-18T17:05:09.416Z,0.93
2023-01-18T17:07:36.003Z,0.90
2023-01-18T17:10:02.802Z,0.86
2023-01-18T17:12:29.292Z,0.83
2023-01-18T17:14:55.669Z,0.81
2023-01-18T17:17:22.097Z,0.79
2023-01-18T17:19:48.521Z,0.77
2023-01-18T17:22:14.966Z,0.75
2023-01-18T17:24:41.651Z,0.73
2023-01-18T17:27:11.580Z,0.69
2023-01-18T17:29:38.004Z,0.68
2023-01-18T17:32:05.544Z,0.66
2023-01-18T17:34:32.221Z,0.65
2023-01-18T17:36:58.894Z,0.64
2023-01-18T17:39:36.972Z,0.61
2023-01-18T17:42:14.230Z,0.61
2023-01-18T17:44:43.103Z,0.57
2023-01-18T17:47:09.772Z,0.57
2023-01-18T17:49:36.139Z,0.56
2023-01-18T17:52:03.380Z,0.51
2023-01-18T17:54:30.014Z,0.50
2023-01-18T17:56:56.574Z,0.49
2023-01-18T17:59:23.062Z,0.46
2023-01-18T18:01:49.547Z,0.43
2023-01-18T18:04:16.107Z,0.43
2023-01-18T18:06:49.775Z,0.42
2023-01-18T18:09:20.449Z,0.40
2023-01-18T18:11:46.900Z,0.39
2023-01-18T18:14:13.244Z,0.39
2023-01-18T18:16:43.505Z,0.36
2023-01-18T18:19:17.011Z,0.35
2023-01-18T18:21:43.534Z,0.33
2023-01-18T18:24:09.987Z,0.33
2023-01-18T18:26:36.377Z,0.32
2023-01-18T18:29:02.858Z,0.33
2023-01-18T18:31:29.541Z,0.35
2023-01-18T18:33:56.145Z,0.36
2023-01-18T18:36:28.146Z,0.35
2023-01-18T18:38:57.694Z,0.36
2023-01-18T18:41:24.446Z,0.36
2023-01-18T18:43:50.931Z,0.36
2023-01-18T18:46:17.541Z,0.38
2023-01-18T18:48:44.048Z,0.39
2023-01-18T18:51:10.590Z,0.39
2023-01-18T18:53:40.851Z,0.40
2023-01-18T18:56:10.989Z,0.40
2023-01-18T18:58:39.043Z,0.41
2023-01-18T19:01:07.268Z,0.43
2023-01-18T19:03:35.051Z,0.44
2023-01-18T19:06:01.756Z,0.43
2023-01-18T19:08:28.255Z,0.44
2023-01-18T19:10:56.101Z,0.44
2023-01-18T19:13:22.541Z,0.45
2023-01-18T19:15:51.221Z,0.44
2023-01-18T19:18:17.755Z,0.45
2023-01-18T19:20:44.200Z,0.44
2023-01-18T19:23:10.999Z,0.44
2023-01-18T19:25:38.688Z,0.42
2023-01-18T19:28:05.203Z,0.41
2023-01-18T19:30:33.093Z,0.40
2023-01-18T19:33:03.595Z,0.35
2023-01-18T19:35:31.199Z,0.34
2023-01-18T19:38:00.181Z,0.31
2023-01-18T19:40:26.662Z,0.27
2023-01-18T19:42:54.462Z,0.24
2023-01-18T19:45:27.811Z,0.21
2023-01-18T19:47:56.660Z,0.19
2023-01-18T19:50:23.353Z,0.17
2023-01-18T19:52:50.208Z,0.16
2023-01-18T19:55:16.954Z,0.14
2023-01-18T19:57:43.550Z,0.12
2023-01-18T20:00:10.717Z,0.11
2023-01-18T20:02:41.237Z,0.09
2023-01-18T20:05:08.298Z,0.07
2023-01-18T20:07:34.702Z,0.06
2023-01-18T20:10:01.768Z,0.04
2023-01-18T20:12:31.243Z,0.04
2023-01-18T20:14:58.119Z,0.04
2023-01-18T20:17:24.926Z,0.03
2023-01-18T20:19:54.062Z,0.02
2023-01-18T20:22:21.407Z,0.01
2023-01-18T20:24:47.992Z,-0.01
2023-01-18T20:27:16.840Z,-0.01
2023-01-18T20:29:43.905Z,0.01
2023-01-18T20:32:16.200Z,0.04
2023-01-18T20:34:47.562Z,0.05
2023-01-18T20:37:15.655Z,0.06
2023-01-18T20:39:42.818Z,0.05
2023-01-18T20:42:09.318Z,0.05
2023-01-18T20:44:36.158Z,0.05
2023-01-18T20:47:03.036Z,0.07
2023-01-18T20:49:37.841Z,0.04
2023-01-18T20:52:06.797Z,0.04
2023-01-18T20:54:34.872Z,0.05
2023-01-18T20:57:02.572Z,0.04
2023-01-18T20:59:28.940Z,0.02
2023-01-18T21:01:55.631Z,0.02
2023-01-18T21:04:22.413Z,0.02
2023-01-18T21:06:49.727Z,0.03
2023-01-18T21:09:16.506Z,0.01
2023-01-18T21:11:42.904Z,0.00
2023-01-18T21:14:09.390Z,-0.01
2023-01-18T21:16:35.780Z,-0.03
2023-01-18T21:19:02.614Z,-0.03
2023-01-18T21:21:31.377Z,-0.04
2023-01-18T21:23:58.069Z,-0.06
2023-01-18T21:26:24.535Z,-0.07
2023-01-18T21:28:50.916Z,-0.09
2023-01-18T21:31:17.508Z,-0.13
2023-01-18T21:33:44.197Z,-0.14
2023-01-18T21:36:17.587Z,-0.16
2023-01-18T21:38:44.484Z,-0.21
2023-01-18T21:41:30.066Z,-0.21
2023-01-18T21:44:14.933Z,-0.28
2023-01-18T21:46:47.622Z,-0.30
2023-01-18T21:49:51.945Z,-0.31
2023-01-18T21:52:43.257Z,-0.35
2023-01-18T21:55:10.077Z,-0.35
2023-01-18T21:57:36.676Z,-0.37
2023-01-18T22:00:04.957Z,-0.39
2023-01-18T22:02:32.958Z,-0.38
2023-01-18T22:05:05.450Z,-0.39
2023-01-18T22:07:35.055Z,-0.40
2023-01-18T22:10:05.728Z,-0.39
2023-01-18T22:12:35.455Z,-0.40
2023-01-18T22:15:06.559Z,-0.41
2023-01-18T22:17:33.063Z,-0.45
2023-01-18T22:20:00.185Z,-0.45
2023-01-18T22:22:26.874Z,-0.48
2023-01-18T22:24:53.509Z,-0.50
2023-01-18T22:27:20.195Z,-0.50
2023-01-18T22:29:46.810Z,-0.51
2023-01-18T22:32:13.636Z,-0.49
2023-01-18T22:34:40.118Z,-0.52
2023-01-18T22:37:06.712Z,-0.52
2023-01-18T22:39:33.416Z,-0.54
2023-01-18T22:41:59.876Z,-0.52
2023-01-18T22:44:26.400Z,-0.57
2023-01-18T22:46:52.940Z,-0.57
2023-01-18T22:49:19.788Z,-0.59
2023-01-18T22:51:46.320Z,-0.63
2023-01-18T22:54:12.757Z,-0.66
2023-01-18T22:56:39.351Z,-0.65
2023-01-18T22:59:05.909Z,-0.62
2023-01-18T23:01:33.558Z,-0.62
2023-01-18T23:04:02.871Z,-0.67
2023-01-18T23:06:41.821Z,-0.72
2023-01-18T23:09:10.141Z,-0.75
2023-01-18T23:11:37.180Z,-0.76
2023-01-18T23:14:22.881Z,-0.81
2023-01-18T23:17:08.155Z,-0.79
2023-01-18T23:19:34.805Z,-0.81
2023-01-18T23:22:06.998Z,-0.86
2023-01-18T23:24:38.098Z,-0.87
2023-01-18T23:27:07.113Z,-0.88
2023-01-18T23:29:33.960Z,-0.92
2023-01-18T23:32:00.573Z,-0.90
2023-01-18T23:34:27.200Z,-0.93
2023-01-18T23:36:54.100Z,-0.94
2023-01-18T23:39:39.236Z,-0.92
2023-01-18T23:42:24.488Z,-0.91
2023-01-18T23:45:09.408Z,-0.94
2023-01-18T23:47:54.659Z,-0.95
2023-01-18T23:50:39.799Z,-0.96
2023-01-18T23:53:28.741Z,-0.98
2023-01-18T23:55:55.329Z,-1.00
2023-01-18T23:58:21.867Z,-1.02
